sensor_id;sensor_type;location;lat;lon;timestamp;P1;durP1;ratioP1;P2;durP2;ratioP2
6434;SDS011;3250;42.694;23.278;2023-02-02T00:01:27;8.70;;;4.47;;
6434;SDS011;3250;42.694;23.278;2023-02-02T00:03:53;13.53;;;5.23;;
6434;SDS011;3250;42.694;23.278;2023-02-02T00:06:20;11.40;;;4.18;;
6434;SDS011;3250;42.694;23.278;2023-02-02T00:08:47;7.83;;;3.23;;
6434;SDS011;3250;42.694;23.278;2023-02-02T00:11:13;7.60;;;3.15;;
6434;SDS011;3250;42.694;23.278;2023-02-02T00:13:39;8.97;;;3.37;;
6434;SDS011;3250;42.694;23.278;2023-02-02T00:18:52;25.60;;;9.00;;
6434;SDS011;3250;42.694;23.278;2023-02-02T00:21:19;19.33;;;6.80;;
6434;SDS011;3250;42.694;23.278;2023-02-02T00:23:45;14.47;;;5.63;;
6434;SDS011;3250;42.694;23.278;2023-02-02T00:26:10;13.70;;;5.37;;
6434;SDS011;3250;42.694;23.278;2023-02-02T00:28:35;20.50;;;8.17;;
6434;SDS011;3250;42.694;23.278;2023-02-02T00:31:01;18.30;;;8.23;;
6434;SDS011;3250;42.694;23.278;2023-02-02T00:33:26;7.20;;;3.50;;
6434;SDS011;3250;42.694;23.278;2023-02-02T00:35:52;8.43;;;4.10;;
6434;SDS011;3250;42.694;23.278;2023-02-02T00:38:17;9.48;;;3.92;;
6434;SDS011;3250;42.694;23.278;2023-02-02T00:40:43;16.73;;;4.93;;
6434;SDS011;3250;42.694;23.278;2023-02-02T00:43:09;7.63;;;4.13;;
6434;SDS011;3250;42.694;23.278;2023-02-02T00:45:35;8.40;;;4.03;;
6434;SDS011;3250;42.694;23.278;2023-02-02T00:48:00;8.00;;;3.70;;
6434;SDS011;3250;42.694;23.278;2023-02-02T00:50:26;9.87;;;3.90;;
6434;SDS011;3250;42.694;23.278;2023-02-02T00:52:51;6.10;;;3.13;;
6434;SDS011;3250;42.694;23.278;2023-02-02T00:55:17;11.97;;;4.63;;
6434;SDS011;3250;42.694;23.278;2023-02-02T00:57:42;12.13;;;4.33;;
6434;SDS011;3250;42.694;23.278;2023-02-02T01:00:10;8.67;;;3.40;;
6434;SDS011;3250;42.694;23.278;2023-02-02T01:02:38;10.23;;;3.83;;
6434;SDS011;3250;42.694;23.278;2023-02-02T01:05:03;6.17;;;3.10;;
6434;SDS011;3250;42.694;23.278;2023-02-02T01:07:29;4.63;;;2.63;;
6434;SDS011;3250;42.694;23.278;2023-02-02T01:09:54;5.80;;;3.13;;
6434;SDS011;3250;42.694;23.278;2023-02-02T01:12:20;6.37;;;3.23;;
6434;SDS011;3250;42.694;23.278;2023-02-02T01:14:45;12.93;;;5.27;;
6434;SDS011;3250;42.694;23.278;2023-02-02T01:17:11;7.53;;;3.67;;
6434;SDS011;3250;42.694;23.278;2023-02-02T01:19:37;7.70;;;3.60;;
6434;SDS011;3250;42.694;23.278;2023-02-02T01:22:03;8.13;;;2.87;;
6434;SDS011;3250;42.694;23.278;2023-02-02T01:24:28;4.27;;;2.87;;
6434;SDS011;3250;42.694;23.278;2023-02-02T01:26:54;5.60;;;3.03;;
6434;SDS011;3250;42.694;23.278;2023-02-02T01:29:20;6.33;;;2.77;;
6434;SDS011;3250;42.694;23.278;2023-02-02T01:31:45;5.63;;;2.70;;
6434;SDS011;3250;42.694;23.278;2023-02-02T01:34:11;6.33;;;3.00;;
6434;SDS011;3250;42.694;23.278;2023-02-02T01:36:36;8.57;;;3.60;;
6434;SDS011;3250;42.694;23.278;2023-02-02T01:39:02;8.63;;;3.80;;
6434;SDS011;3250;42.694;23.278;2023-02-02T01:41:27;11.07;;;3.80;;
6434;SDS011;3250;42.694;23.278;2023-02-02T01:44:03;9.02;;;4.00;;
6434;SDS011;3250;42.694;23.278;2023-02-02T01:46:34;10.60;;;4.77;;
6434;SDS011;3250;42.694;23.278;2023-02-02T01:49:08;9.47;;;4.00;;
6434;SDS011;3250;42.694;23.278;2023-02-02T01:54:07;5.43;;;3.77;;
6434;SDS011;3250;42.694;23.278;2023-02-02T01:56:55;7.30;;;3.00;;
6434;SDS011;3250;42.694;23.278;2023-02-02T01:59:23;6.43;;;3.57;;
6434;SDS011;3250;42.694;23.278;2023-02-02T02:01:49;6.72;;;3.03;;
6434;SDS011;3250;42.694;23.278;2023-02-02T02:04:19;6.73;;;3.23;;
6434;SDS011;3250;42.694;23.278;2023-02-02T02:06:45;7.03;;;3.10;;
6434;SDS011;3250;42.694;23.278;2023-02-02T02:09:12;9.95;;;3.70;;
6434;SDS011;3250;42.694;23.278;2023-02-02T02:11:38;12.47;;;3.70;;
6434;SDS011;3250;42.694;23.278;2023-02-02T02:14:06;9.10;;;3.67;;
6434;SDS011;3250;42.694;23.278;2023-02-02T02:34:30;9.13;;;4.22;;
6434;SDS011;3250;42.694;23.278;2023-02-02T02:37:09;19.05;;;6.65;;
6434;SDS011;3250;42.694;23.278;2023-02-02T02:42:19;9.03;;;4.07;;
6434;SDS011;3250;42.694;23.278;2023-02-02T02:44:48;7.23;;;3.30;;
6434;SDS011;3250;42.694;23.278;2023-02-02T02:47:15;5.20;;;2.73;;
6434;SDS011;3250;42.694;23.278;2023-02-02T02:49:43;5.60;;;2.60;;
6434;SDS011;3250;42.694;23.278;2023-02-02T02:52:10;7.87;;;3.60;;
6434;SDS011;3250;42.694;23.278;2023-02-02T02:54:46;7.63;;;3.60;;
6434;SDS011;3250;42.694;23.278;2023-02-02T02:57:23;6.67;;;3.20;;
6434;SDS011;3250;42.694;23.278;2023-02-02T03:02:55;4.33;;;2.63;;
6434;SDS011;3250;42.694;23.278;2023-02-02T03:08:04;7.70;;;4.05;;
6434;SDS011;3250;42.694;23.278;2023-02-02T03:10:51;5.00;;;3.23;;
6434;SDS011;3250;42.694;23.278;2023-02-02T03:13:18;6.30;;;3.67;;
6434;SDS011;3250;42.694;23.278;2023-02-02T03:15:44;5.27;;;3.27;;
6434;SDS011;3250;42.694;23.278;2023-02-02T03:18:11;5.75;;;3.13;;
6434;SDS011;3250;42.694;23.278;2023-02-02T03:20:38;6.23;;;2.93;;
6434;SDS011;3250;42.694;23.278;2023-02-02T03:23:03;8.00;;;2.57;;
6434;SDS011;3250;42.694;23.278;2023-02-02T03:25:29;7.43;;;4.10;;
6434;SDS011;3250;42.694;23.278;2023-02-02T03:27:54;7.33;;;3.73;;
6434;SDS011;3250;42.694;23.278;2023-02-02T03:30:20;5.27;;;3.37;;
6434;SDS011;3250;42.694;23.278;2023-02-02T03:32:46;9.47;;;4.60;;
6434;SDS011;3250;42.694;23.278;2023-02-02T03:35:13;13.87;;;5.83;;
6434;SDS011;3250;42.694;23.278;2023-02-02T03:37:38;10.50;;;5.60;;
6434;SDS011;3250;42.694;23.278;2023-02-02T03:40:04;13.23;;;5.50;;
6434;SDS011;3250;42.694;23.278;2023-02-02T03:42:30;11.02;;;6.70;;
6434;SDS011;3250;42.694;23.278;2023-02-02T03:44:56;8.90;;;4.87;;
6434;SDS011;3250;42.694;23.278;2023-02-02T03:47:21;8.57;;;3.90;;
6434;SDS011;3250;42.694;23.278;2023-02-02T03:49:46;8.23;;;3.40;;
6434;SDS011;3250;42.694;23.278;2023-02-02T03:52:12;5.37;;;2.80;;
6434;SDS011;3250;42.694;23.278;2023-02-02T03:54:38;3.03;;;2.73;;
6434;SDS011;3250;42.694;23.278;2023-02-02T03:57:03;6.17;;;2.27;;
6434;SDS011;3250;42.694;23.278;2023-02-02T03:59:28;4.73;;;2.60;;
6434;SDS011;3250;42.694;23.278;2023-02-02T04:01:54;7.20;;;2.57;;
6434;SDS011;3250;42.694;23.278;2023-02-02T04:04:19;6.50;;;3.08;;
6434;SDS011;3250;42.694;23.278;2023-02-02T04:06:45;8.73;;;4.63;;
6434;SDS011;3250;42.694;23.278;2023-02-02T04:09:10;12.60;;;6.30;;
6434;SDS011;3250;42.694;23.278;2023-02-02T04:11:35;9.90;;;5.13;;
6434;SDS011;3250;42.694;23.278;2023-02-02T04:14:01;12.15;;;6.05;;
6434;SDS011;3250;42.694;23.278;2023-02-02T04:16:26;9.63;;;5.97;;
6434;SDS011;3250;42.694;23.278;2023-02-02T04:18:52;14.87;;;7.17;;
6434;SDS011;3250;42.694;23.278;2023-02-02T04:21:17;15.57;;;8.10;;
6434;SDS011;3250;42.694;23.278;2023-02-02T04:23:42;17.80;;;8.50;;
6434;SDS011;3250;42.694;23.278;2023-02-02T04:26:08;15.02;;;8.50;;
6434;SDS011;3250;42.694;23.278;2023-02-02T04:28:33;23.52;;;12.52;;
6434;SDS011;3250;42.694;23.278;2023-02-02T04:30:58;21.30;;;11.20;;
6434;SDS011;3250;42.694;23.278;2023-02-02T04:33:24;18.63;;;9.45;;
6434;SDS011;3250;42.694;23.278;2023-02-02T04:35:51;21.98;;;11.00;;
6434;SDS011;3250;42.694;23.278;2023-02-02T04:38:17;23.70;;;11.57;;
6434;SDS011;3250;42.694;23.278;2023-02-02T04:40:44;20.03;;;9.93;;
6434;SDS011;3250;42.694;23.278;2023-02-02T04:43:11;19.20;;;9.00;;
6434;SDS011;3250;42.694;23.278;2023-02-02T04:45:37;21.63;;;10.57;;
6434;SDS011;3250;42.694;23.278;2023-02-02T04:48:02;21.47;;;8.97;;
6434;SDS011;3250;42.694;23.278;2023-02-02T04:50:28;22.17;;;9.03;;
6434;SDS011;3250;42.694;23.278;2023-02-02T04:52:54;14.63;;;7.73;;
6434;SDS011;3250;42.694;23.278;2023-02-02T04:55:20;15.37;;;8.40;;
6434;SDS011;3250;42.694;23.278;2023-02-02T04:57:45;20.63;;;9.10;;
6434;SDS011;3250;42.694;23.278;2023-02-02T05:00:11;21.20;;;9.23;;
6434;SDS011;3250;42.694;23.278;2023-02-02T05:02:37;18.40;;;8.68;;
6434;SDS011;3250;42.694;23.278;2023-02-02T05:05:04;10.87;;;5.63;;
6434;SDS011;3250;42.694;23.278;2023-02-02T05:07:31;14.07;;;7.17;;
6434;SDS011;3250;42.694;23.278;2023-02-02T05:09:56;21.73;;;6.43;;
6434;SDS011;3250;42.694;23.278;2023-02-02T05:12:22;11.90;;;5.03;;
6434;SDS011;3250;42.694;23.278;2023-02-02T05:14:47;12.70;;;6.00;;
6434;SDS011;3250;42.694;23.278;2023-02-02T05:17:12;15.37;;;8.20;;
6434;SDS011;3250;42.694;23.278;2023-02-02T05:19:38;11.53;;;6.33;;
6434;SDS011;3250;42.694;23.278;2023-02-02T05:22:03;14.15;;;7.05;;
6434;SDS011;3250;42.694;23.278;2023-02-02T05:24:29;16.37;;;6.97;;
6434;SDS011;3250;42.694;23.278;2023-02-02T05:26:54;20.90;;;10.57;;
6434;SDS011;3250;42.694;23.278;2023-02-02T05:29:24;25.93;;;11.63;;
6434;SDS011;3250;42.694;23.278;2023-02-02T05:31:50;21.35;;;9.15;;
6434;SDS011;3250;42.694;23.278;2023-02-02T05:34:15;19.20;;;9.20;;
6434;SDS011;3250;42.694;23.278;2023-02-02T05:36:40;15.27;;;9.20;;
6434;SDS011;3250;42.694;23.278;2023-02-02T05:39:06;11.43;;;6.37;;
6434;SDS011;3250;42.694;23.278;2023-02-02T05:41:31;37.83;;;17.57;;
6434;SDS011;3250;42.694;23.278;2023-02-02T05:43:59;27.65;;;11.48;;
6434;SDS011;3250;42.694;23.278;2023-02-02T05:46:25;15.25;;;8.18;;
6434;SDS011;3250;42.694;23.278;2023-02-02T05:48:51;10.97;;;5.60;;
6434;SDS011;3250;42.694;23.278;2023-02-02T05:51:18;18.30;;;6.37;;
6434;SDS011;3250;42.694;23.278;2023-02-02T05:53:46;7.43;;;5.10;;
6434;SDS011;3250;42.694;23.278;2023-02-02T05:56:11;13.80;;;7.17;;
6434;SDS011;3250;42.694;23.278;2023-02-02T05:58:39;18.17;;;7.93;;
6434;SDS011;3250;42.694;23.278;2023-02-02T06:01:05;17.97;;;7.63;;
6434;SDS011;3250;42.694;23.278;2023-02-02T06:03:30;15.07;;;7.33;;
6434;SDS011;3250;42.694;23.278;2023-02-02T06:05:56;11.57;;;6.33;;
6434;SDS011;3250;42.694;23.278;2023-02-02T06:08:21;13.10;;;5.73;;
6434;SDS011;3250;42.694;23.278;2023-02-02T06:10:46;19.10;;;8.70;;
6434;SDS011;3250;42.694;23.278;2023-02-02T06:13:12;14.13;;;6.80;;
6434;SDS011;3250;42.694;23.278;2023-02-02T06:15:37;12.37;;;6.43;;
6434;SDS011;3250;42.694;23.278;2023-02-02T06:18:03;18.73;;;8.13;;
6434;SDS011;3250;42.694;23.278;2023-02-02T06:20:30;20.43;;;8.47;;
6434;SDS011;3250;42.694;23.278;2023-02-02T06:22:56;22.23;;;10.73;;
6434;SDS011;3250;42.694;23.278;2023-02-02T06:25:21;28.13;;;13.83;;
6434;SDS011;3250;42.694;23.278;2023-02-02T06:27:47;29.67;;;12.63;;
6434;SDS011;3250;42.694;23.278;2023-02-02T06:30:13;21.30;;;10.63;;
6434;SDS011;3250;42.694;23.278;2023-02-02T06:32:40;18.10;;;9.00;;
6434;SDS011;3250;42.694;23.278;2023-02-02T06:35:06;11.50;;;6.17;;
6434;SDS011;3250;42.694;23.278;2023-02-02T06:37:31;13.10;;;6.03;;
6434;SDS011;3250;42.694;23.278;2023-02-02T06:39:58;12.67;;;7.03;;
6434;SDS011;3250;42.694;23.278;2023-02-02T06:42:24;15.87;;;7.23;;
6434;SDS011;3250;42.694;23.278;2023-02-02T06:44:49;16.13;;;7.93;;
6434;SDS011;3250;42.694;23.278;2023-02-02T06:47:15;17.63;;;8.90;;
6434;SDS011;3250;42.694;23.278;2023-02-02T06:49:40;49.13;;;16.67;;
6434;SDS011;3250;42.694;23.278;2023-02-02T06:52:06;43.00;;;17.27;;
6434;SDS011;3250;42.694;23.278;2023-02-02T06:54:31;23.43;;;11.57;;
6434;SDS011;3250;42.694;23.278;2023-02-02T06:56:56;18.53;;;8.83;;
6434;SDS011;3250;42.694;23.278;2023-02-02T06:59:22;14.43;;;6.77;;
6434;SDS011;3250;42.694;23.278;2023-02-02T07:01:48;13.53;;;5.80;;
6434;SDS011;3250;42.694;23.278;2023-02-02T07:04:15;10.93;;;5.57;;
6434;SDS011;3250;42.694;23.278;2023-02-02T07:06:44;14.03;;;6.27;;
6434;SDS011;3250;42.694;23.278;2023-02-02T07:09:09;17.07;;;6.90;;
6434;SDS011;3250;42.694;23.278;2023-02-02T07:11:35;12.00;;;5.60;;
6434;SDS011;3250;42.694;23.278;2023-02-02T07:14:01;15.90;;;6.97;;
6434;SDS011;3250;42.694;23.278;2023-02-02T07:16:27;7.90;;;3.90;;
6434;SDS011;3250;42.694;23.278;2023-02-02T07:18:52;4.53;;;2.87;;
6434;SDS011;3250;42.694;23.278;2023-02-02T07:21:19;6.83;;;4.13;;
6434;SDS011;3250;42.694;23.278;2023-02-02T07:23:46;11.67;;;5.73;;
6434;SDS011;3250;42.694;23.278;2023-02-02T07:26:12;8.80;;;5.90;;
6434;SDS011;3250;42.694;23.278;2023-02-02T07:28:38;5.90;;;3.40;;
6434;SDS011;3250;42.694;23.278;2023-02-02T07:31:11;4.87;;;3.10;;
6434;SDS011;3250;42.694;23.278;2023-02-02T07:33:37;4.87;;;3.27;;
6434;SDS011;3250;42.694;23.278;2023-02-02T07:36:05;4.13;;;3.00;;
6434;SDS011;3250;42.694;23.278;2023-02-02T07:38:31;8.00;;;3.10;;
6434;SDS011;3250;42.694;23.278;2023-02-02T07:40:59;7.57;;;4.13;;
6434;SDS011;3250;42.694;23.278;2023-02-02T07:43:25;8.87;;;4.37;;
6434;SDS011;3250;42.694;23.278;2023-02-02T07:45:50;8.77;;;4.47;;
6434;SDS011;3250;42.694;23.278;2023-02-02T07:48:16;8.47;;;5.20;;
6434;SDS011;3250;42.694;23.278;2023-02-02T07:50:41;5.53;;;3.20;;
6434;SDS011;3250;42.694;23.278;2023-02-02T07:53:06;5.07;;;3.10;;
6434;SDS011;3250;42.694;23.278;2023-02-02T07:55:32;8.23;;;4.10;;
6434;SDS011;3250;42.694;23.278;2023-02-02T07:57:57;9.83;;;5.13;;
6434;SDS011;3250;42.694;23.278;2023-02-02T08:00:23;14.57;;;5.87;;
6434;SDS011;3250;42.694;23.278;2023-02-02T08:02:49;20.33;;;6.67;;
6434;SDS011;3250;42.694;23.278;2023-02-02T08:05:15;21.93;;;7.33;;
6434;SDS011;3250;42.694;23.278;2023-02-02T08:07:40;11.63;;;6.17;;
6434;SDS011;3250;42.694;23.278;2023-02-02T08:10:06;12.27;;;6.47;;
6434;SDS011;3250;42.694;23.278;2023-02-02T08:12:32;9.00;;;3.83;;
6434;SDS011;3250;42.694;23.278;2023-02-02T08:14:57;6.80;;;3.93;;
6434;SDS011;3250;42.694;23.278;2023-02-02T08:17:23;6.87;;;3.57;;
6434;SDS011;3250;42.694;23.278;2023-02-02T08:19:49;5.80;;;3.03;;
6434;SDS011;3250;42.694;23.278;2023-02-02T08:22:14;16.17;;;3.33;;
6434;SDS011;3250;42.694;23.278;2023-02-02T08:24:40;7.63;;;3.77;;
6434;SDS011;3250;42.694;23.278;2023-02-02T08:27:07;7.43;;;3.60;;
6434;SDS011;3250;42.694;23.278;2023-02-02T08:29:33;7.37;;;4.43;;
6434;SDS011;3250;42.694;23.278;2023-02-02T08:31:59;7.47;;;4.37;;
6434;SDS011;3250;42.694;23.278;2023-02-02T08:34:25;10.17;;;4.70;;
6434;SDS011;3250;42.694;23.278;2023-02-02T08:36:51;8.30;;;4.43;;
6434;SDS011;3250;42.694;23.278;2023-02-02T08:39:16;4.47;;;2.70;;
6434;SDS011;3250;42.694;23.278;2023-02-02T08:41:42;4.83;;;3.00;;
6434;SDS011;3250;42.694;23.278;2023-02-02T08:44:10;6.00;;;2.83;;
6434;SDS011;3250;42.694;23.278;2023-02-02T08:46:38;9.90;;;4.03;;
6434;SDS011;3250;42.694;23.278;2023-02-02T08:49:03;7.57;;;2.87;;
6434;SDS011;3250;42.694;23.278;2023-02-02T08:51:29;4.17;;;2.77;;
6434;SDS011;3250;42.694;23.278;2023-02-02T08:53:54;8.87;;;4.30;;
6434;SDS011;3250;42.694;23.278;2023-02-02T08:56:20;5.40;;;3.00;;
6434;SDS011;3250;42.694;23.278;2023-02-02T08:58:48;3.90;;;2.30;;
6434;SDS011;3250;42.694;23.278;2023-02-02T09:01:38;3.33;;;2.30;;
6434;SDS011;3250;42.694;23.278;2023-02-02T09:04:03;4.57;;;2.33;;
6434;SDS011;3250;42.694;23.278;2023-02-02T09:06:32;4.90;;;2.63;;
6434;SDS011;3250;42.694;23.278;2023-02-02T09:09:02;7.57;;;3.00;;
6434;SDS011;3250;42.694;23.278;2023-02-02T09:11:29;9.20;;;3.80;;
6434;SDS011;3250;42.694;23.278;2023-02-02T09:13:55;8.47;;;3.73;;
6434;SDS011;3250;42.694;23.278;2023-02-02T09:16:23;6.27;;;3.73;;
6434;SDS011;3250;42.694;23.278;2023-02-02T09:18:49;8.80;;;3.63;;
6434;SDS011;3250;42.694;23.278;2023-02-02T09:21:15;8.93;;;4.13;;
6434;SDS011;3250;42.694;23.278;2023-02-02T09:23:42;5.17;;;3.60;;
6434;SDS011;3250;42.694;23.278;2023-02-02T09:26:12;6.33;;;3.10;;
6434;SDS011;3250;42.694;23.278;2023-02-02T09:28:50;9.07;;;3.67;;
6434;SDS011;3250;42.694;23.278;2023-02-02T09:31:17;5.70;;;3.73;;
6434;SDS011;3250;42.694;23.278;2023-02-02T09:33:43;6.13;;;2.87;;
6434;SDS011;3250;42.694;23.278;2023-02-02T09:36:10;10.17;;;4.00;;
6434;SDS011;3250;42.694;23.278;2023-02-02T09:38:46;3.97;;;2.07;;
6434;SDS011;3250;42.694;23.278;2023-02-02T09:46:30;6.77;;;2.50;;
6434;SDS011;3250;42.694;23.278;2023-02-02T09:49:01;3.40;;;2.47;;
6434;SDS011;3250;42.694;23.278;2023-02-02T09:51:33;7.83;;;4.33;;
6434;SDS011;3250;42.694;23.278;2023-02-02T09:54:50;9.93;;;3.80;;
6434;SDS011;3250;42.694;23.278;2023-02-02T09:56:57;10.00;;;3.60;;
6434;SDS011;3250;42.694;23.278;2023-02-02T09:59:28;3.47;;;2.30;;
6434;SDS011;3250;42.694;23.278;2023-02-02T10:02:00;6.03;;;2.90;;
6434;SDS011;3250;42.694;23.278;2023-02-02T10:04:32;3.77;;;2.27;;
6434;SDS011;3250;42.694;23.278;2023-02-02T10:07:19;3.77;;;2.43;;
6434;SDS011;3250;42.694;23.278;2023-02-02T10:17:52;12.17;;;4.90;;
6434;SDS011;3250;42.694;23.278;2023-02-02T10:21:09;7.47;;;3.27;;
6434;SDS011;3250;42.694;23.278;2023-02-02T10:23:18;6.37;;;2.60;;
6434;SDS011;3250;42.694;23.278;2023-02-02T10:25:48;8.30;;;4.00;;
6434;SDS011;3250;42.694;23.278;2023-02-02T10:28:23;14.60;;;6.37;;
6434;SDS011;3250;42.694;23.278;2023-02-02T10:31:06;8.70;;;3.90;;
6434;SDS011;3250;42.694;23.278;2023-02-02T10:33:41;6.93;;;3.93;;
6434;SDS011;3250;42.694;23.278;2023-02-02T10:36:23;9.77;;;3.77;;
6434;SDS011;3250;42.694;23.278;2023-02-02T10:42:10;7.43;;;4.20;;
6434;SDS011;3250;42.694;23.278;2023-02-02T10:45:03;3.40;;;2.43;;
6434;SDS011;3250;42.694;23.278;2023-02-02T10:47:38;6.73;;;2.60;;
6434;SDS011;3250;42.694;23.278;2023-02-02T10:50:14;5.00;;;2.20;;
6434;SDS011;3250;42.694;23.278;2023-02-02T10:52:59;7.70;;;3.17;;
6434;SDS011;3250;42.694;23.278;2023-02-02T10:55:41;5.60;;;2.20;;
6434;SDS011;3250;42.694;23.278;2023-02-02T11:03:10;7.23;;;3.93;;
6434;SDS011;3250;42.694;23.278;2023-02-02T11:05:38;6.80;;;2.53;;
6434;SDS011;3250;42.694;23.278;2023-02-02T11:10:57;6.80;;;3.67;;
6434;SDS011;3250;42.694;23.278;2023-02-02T11:13:32;7.07;;;3.63;;
6434;SDS011;3250;42.694;23.278;2023-02-02T11:18:40;5.40;;;2.93;;
6434;SDS011;3250;42.694;23.278;2023-02-02T11:24:00;3.67;;;2.70;;
6434;SDS011;3250;42.694;23.278;2023-02-02T11:26:47;7.40;;;2.33;;
6434;SDS011;3250;42.694;23.278;2023-02-02T11:29:32;3.33;;;2.40;;
6434;SDS011;3250;42.694;23.278;2023-02-02T11:32:24;5.33;;;2.53;;
6434;SDS011;3250;42.694;23.278;2023-02-02T11:37:28;11.60;;;3.83;;
6434;SDS011;3250;42.694;23.278;2023-02-02T11:42:58;8.60;;;2.80;;
6434;SDS011;3250;42.694;23.278;2023-02-02T11:45:36;6.13;;;2.27;;
6434;SDS011;3250;42.694;23.278;2023-02-02T11:48:13;3.67;;;2.30;;
6434;SDS011;3250;42.694;23.278;2023-02-02T11:50:52;9.50;;;2.37;;
6434;SDS011;3250;42.694;23.278;2023-02-02T11:53:35;9.17;;;4.27;;
6434;SDS011;3250;42.694;23.278;2023-02-02T11:56:21;7.23;;;2.30;;
6434;SDS011;3250;42.694;23.278;2023-02-02T11:58:52;6.47;;;3.20;;
6434;SDS011;3250;42.694;23.278;2023-02-02T12:01:27;9.03;;;4.13;;
6434;SDS011;3250;42.694;23.278;2023-02-02T12:06:42;8.33;;;3.33;;
6434;SDS011;3250;42.694;23.278;2023-02-02T12:09:12;9.73;;;4.33;;
6434;SDS011;3250;42.694;23.278;2023-02-02T12:17:41;12.50;;;5.17;;
6434;SDS011;3250;42.694;23.278;2023-02-02T12:20:18;11.87;;;4.70;;
6434;SDS011;3250;42.694;23.278;2023-02-02T12:31:36;10.27;;;5.27;;
6434;SDS011;3250;42.694;23.278;2023-02-02T12:42:21;11.37;;;5.50;;
6434;SDS011;3250;42.694;23.278;2023-02-02T12:51:10;11.53;;;4.87;;
6434;SDS011;3250;42.694;23.278;2023-02-02T13:13:06;5.27;;;3.50;;
6434;SDS011;3250;42.694;23.278;2023-02-02T13:15:36;20.43;;;7.63;;
6434;SDS011;3250;42.694;23.278;2023-02-02T13:18:27;19.87;;;6.23;;
6434;SDS011;3250;42.694;23.278;2023-02-02T13:21:27;8.00;;;3.50;;
6434;SDS011;3250;42.694;23.278;2023-02-02T13:23:48;7.27;;;4.00;;
6434;SDS011;3250;42.694;23.278;2023-02-02T13:26:17;6.13;;;3.20;;
6434;SDS011;3250;42.694;23.278;2023-02-02T13:31:36;8.67;;;3.53;;
6434;SDS011;3250;42.694;23.278;2023-02-02T13:36:38;9.43;;;3.47;;
6434;SDS011;3250;42.694;23.278;2023-02-02T13:39:13;11.97;;;3.80;;
6434;SDS011;3250;42.694;23.278;2023-02-02T13:41:44;6.53;;;3.57;;
6434;SDS011;3250;42.694;23.278;2023-02-02T13:44:16;12.97;;;6.27;;
6434;SDS011;3250;42.694;23.278;2023-02-02T13:46:55;9.40;;;4.77;;
6434;SDS011;3250;42.694;23.278;2023-02-02T13:49:32;10.77;;;5.00;;
6434;SDS011;3250;42.694;23.278;2023-02-02T14:00:50;6.80;;;4.40;;
6434;SDS011;3250;42.694;23.278;2023-02-02T14:08:34;10.80;;;3.50;;
6434;SDS011;3250;42.694;23.278;2023-02-02T14:11:01;7.07;;;2.20;;
6434;SDS011;3250;42.694;23.278;2023-02-02T14:18:54;2.43;;;1.70;;
6434;SDS011;3250;42.694;23.278;2023-02-02T14:26:39;6.57;;;3.20;;
6434;SDS011;3250;42.694;23.278;2023-02-02T14:34:55;10.40;;;5.13;;
6434;SDS011;3250;42.694;23.278;2023-02-02T14:37:57;13.27;;;6.53;;
6434;SDS011;3250;42.694;23.278;2023-02-02T14:40:38;8.63;;;4.90;;
6434;SDS011;3250;42.694;23.278;2023-02-02T14:48:39;12.52;;;6.45;;
6434;SDS011;3250;42.694;23.278;2023-02-02T14:51:11;12.32;;;6.95;;
6434;SDS011;3250;42.694;23.278;2023-02-02T14:53:43;8.27;;;5.82;;
6434;SDS011;3250;42.694;23.278;2023-02-02T14:56:14;5.93;;;4.25;;
6434;SDS011;3250;42.694;23.278;2023-02-02T14:58:44;6.90;;;4.60;;
6434;SDS011;3250;42.694;23.278;2023-02-02T15:06:53;5.67;;;4.40;;
6434;SDS011;3250;42.694;23.278;2023-02-02T15:32:13;12.82;;;7.72;;
6434;SDS011;3250;42.694;23.278;2023-02-02T15:34:50;10.45;;;5.95;;
6434;SDS011;3250;42.694;23.278;2023-02-02T15:37:29;11.43;;;7.03;;
6434;SDS011;3250;42.694;23.278;2023-02-02T15:40:10;14.13;;;8.93;;
6434;SDS011;3250;42.694;23.278;2023-02-02T15:42:41;15.73;;;8.25;;
6434;SDS011;3250;42.694;23.278;2023-02-02T15:47:52;12.40;;;8.30;;
6434;SDS011;3250;42.694;23.278;2023-02-02T15:50:18;16.98;;;9.65;;
6434;SDS011;3250;42.694;23.278;2023-02-02T15:52:46;13.20;;;7.20;;
6434;SDS011;3250;42.694;23.278;2023-02-02T15:55:21;16.15;;;8.75;;
6434;SDS011;3250;42.694;23.278;2023-02-02T15:57:49;14.27;;;7.80;;
6434;SDS011;3250;42.694;23.278;2023-02-02T16:00:32;10.23;;;5.25;;
6434;SDS011;3250;42.694;23.278;2023-02-02T16:07:53;16.77;;;9.15;;
6434;SDS011;3250;42.694;23.278;2023-02-02T16:10:19;20.30;;;12.20;;
6434;SDS011;3250;42.694;23.278;2023-02-02T16:12:45;19.63;;;11.27;;
6434;SDS011;3250;42.694;23.278;2023-02-02T16:15:18;21.83;;;12.93;;
6434;SDS011;3250;42.694;23.278;2023-02-02T16:17:56;20.63;;;12.32;;
6434;SDS011;3250;42.694;23.278;2023-02-02T16:20:37;20.00;;;11.02;;
6434;SDS011;3250;42.694;23.278;2023-02-02T16:23:04;18.27;;;10.40;;
6434;SDS011;3250;42.694;23.278;2023-02-02T16:25:48;13.35;;;7.47;;
6434;SDS011;3250;42.694;23.278;2023-02-02T16:28:17;15.00;;;7.60;;
6434;SDS011;3250;42.694;23.278;2023-02-02T16:30:45;18.40;;;9.00;;
6434;SDS011;3250;42.694;23.278;2023-02-02T16:35:59;26.33;;;14.13;;
6434;SDS011;3250;42.694;23.278;2023-02-02T16:38:29;82.27;;;42.13;;
6434;SDS011;3250;42.694;23.278;2023-02-02T16:43:32;32.13;;;17.92;;
6434;SDS011;3250;42.694;23.278;2023-02-02T16:45:59;35.90;;;17.90;;
6434;SDS011;3250;42.694;23.278;2023-02-02T16:48:35;42.15;;;21.08;;
6434;SDS011;3250;42.694;23.278;2023-02-02T16:56:41;26.63;;;15.85;;
6434;SDS011;3250;42.694;23.278;2023-02-02T16:59:24;18.00;;;10.20;;
6434;SDS011;3250;42.694;23.278;2023-02-02T17:56:12;24.30;;;12.10;;
6434;SDS011;3250;42.694;23.278;2023-02-02T17:58:38;20.60;;;11.00;;
6434;SDS011;3250;42.694;23.278;2023-02-02T18:01:03;29.90;;;14.07;;
6434;SDS011;3250;42.694;23.278;2023-02-02T18:03:30;25.98;;;12.85;;
6434;SDS011;3250;42.694;23.278;2023-02-02T18:05:59;23.70;;;11.50;;
6434;SDS011;3250;42.694;23.278;2023-02-02T18:08:29;22.00;;;12.87;;
6434;SDS011;3250;42.694;23.278;2023-02-02T18:10:55;23.45;;;11.50;;
6434;SDS011;3250;42.694;23.278;2023-02-02T18:13:23;20.15;;;11.30;;
6434;SDS011;3250;42.694;23.278;2023-02-02T18:15:49;26.52;;;12.82;;
6434;SDS011;3250;42.694;23.278;2023-02-02T18:18:15;20.50;;;11.80;;
6434;SDS011;3250;42.694;23.278;2023-02-02T18:20:41;20.23;;;9.90;;
6434;SDS011;3250;42.694;23.278;2023-02-02T18:23:07;17.30;;;9.77;;
6434;SDS011;3250;42.694;23.278;2023-02-02T18:25:34;18.93;;;11.20;;
6434;SDS011;3250;42.694;23.278;2023-02-02T18:28:01;20.80;;;10.67;;
6434;SDS011;3250;42.694;23.278;2023-02-02T18:30:26;25.47;;;14.27;;
6434;SDS011;3250;42.694;23.278;2023-02-02T18:32:52;20.20;;;12.73;;
6434;SDS011;3250;42.694;23.278;2023-02-02T18:35:17;20.93;;;12.50;;
6434;SDS011;3250;42.694;23.278;2023-02-02T18:37:43;14.07;;;9.10;;
6434;SDS011;3250;42.694;23.278;2023-02-02T18:40:08;13.90;;;8.00;;
6434;SDS011;3250;42.694;23.278;2023-02-02T18:42:34;18.67;;;10.33;;
6434;SDS011;3250;42.694;23.278;2023-02-02T18:45:00;20.17;;;11.30;;
6434;SDS011;3250;42.694;23.278;2023-02-02T18:47:27;30.50;;;14.10;;
6434;SDS011;3250;42.694;23.278;2023-02-02T18:49:53;36.58;;;16.80;;
6434;SDS011;3250;42.694;23.278;2023-02-02T18:52:18;31.75;;;16.23;;
6434;SDS011;3250;42.694;23.278;2023-02-02T18:54:48;33.08;;;16.58;;
6434;SDS011;3250;42.694;23.278;2023-02-02T18:57:14;29.95;;;14.77;;
6434;SDS011;3250;42.694;23.278;2023-02-02T18:59:40;35.23;;;16.13;;
6434;SDS011;3250;42.694;23.278;2023-02-02T19:02:06;35.97;;;15.33;;
6434;SDS011;3250;42.694;23.278;2023-02-02T19:04:32;33.42;;;15.32;;
6434;SDS011;3250;42.694;23.278;2023-02-02T19:06:58;33.95;;;15.85;;
6434;SDS011;3250;42.694;23.278;2023-02-02T19:09:42;34.85;;;15.93;;
6434;SDS011;3250;42.694;23.278;2023-02-02T19:12:12;33.93;;;14.57;;
6434;SDS011;3250;42.694;23.278;2023-02-02T19:14:39;30.87;;;14.57;;
6434;SDS011;3250;42.694;23.278;2023-02-02T19:17:26;29.97;;;12.23;;
6434;SDS011;3250;42.694;23.278;2023-02-02T19:19:53;19.08;;;10.63;;
6434;SDS011;3250;42.694;23.278;2023-02-02T19:22:25;18.30;;;9.10;;
6434;SDS011;3250;42.694;23.278;2023-02-02T19:24:55;23.80;;;10.73;;